Cashiers, NC

2:51 AM EST on December 29, 2014 (GMT -0500)
Wild Ridge | Change Station
CLOSE
Current Station
Personal Weather Station
Location: Cashiers, NC
Elevation: 4160 ft
Nearby Weather Stations

Elev 4160 ft 35.13 °N, 83.11 °W | Updated 1 second ago

Rain
Rain
44.7 °F
Feels Like 45 °F
N
3.0
Wind Variable Wind from WNW
Gusts 3.0 mph

Today
High -- | Low -- °F
--% Chance of Precip.
Yesterday
High -- | Low -- °F
Precip. -- in
7:39 AM 5:29 PM
First Quarter, 56% visible
Pressure 30.09 in
Visibility 3.0 miles
Clouds
Windchill 45 °F
Dew Point 45 °F
Humidity 100%
Rainfall 0.07 in
Snow Depth Not available.
UV Not available.
Pollen .30 out of 12
Air Quality Not available.
Flu Activity Not available.
METAR K1A5 290735Z AUTO 00000KT 3SM RA 08/08 A3009 RMK AO2 P0005

More Conditions Fewer Conditions

Pressure 30.09 in
Visibility 3.0 miles
Clouds
Windchill 45 °F
Dew Point 45 °F
Humidity 100%
Rainfall 0.07 in
Snow Depth Not available.
UV Not available.
Pollen .30 out of 12
Air Quality Not available.
Flu Activity Not available.
METAR K1A5 290735Z AUTO 00000KT 3SM RA 08/08 A3009 RMK AO2 P0005

More Conditions Fewer Conditions

10-Day Weather Forecast

Almanac

Astronomy

Dec. 29, 2014 Rise Set
Actual Time
Civil Twilight
Nautical Twilight
Astronomical Twilight
Moon
Length of Visible Light
Length of Day
Tomorrow will be .
, % of the Moon is Illuminated

Today's Extremes

State Highs State Lows

Community

WunderPhotos

Upload Photos

1,781,547 photos uploaded!

WunderBlogs® & News

Nearby

Air Quality

  Air Quality AQ Index Pollutant
Not available.

Snow Depth

Station Depth Elevation

Earthquake Activity

City Distance Mag. Time & Date
Minimum magnitude displayed is 2.5.

Coastal Water Temperatures

Place Temperature

Nearby Weather Stations